sensor_id;sensor_type;location;lat;lon;timestamp;temperature;humidity
26212;DHT22;13951;49.516;6.094;2022-10-31T04:35:15;11.50;99.90
26212;DHT22;13951;49.516;6.094;2022-10-31T04:37:48;11.50;99.90
26212;DHT22;13951;49.516;6.094;2022-10-31T04:40:21;11.50;99.90
26212;DHT22;13951;49.516;6.094;2022-10-31T04:43:00;11.50;99.90
26212;DHT22;13951;49.516;6.094;2022-10-31T04:45:34;11.60;99.90
26212;DHT22;13951;49.516;6.094;2022-10-31T04:48:07;11.60;99.90
26212;DHT22;13951;49.516;6.094;2022-10-31T04:50:41;11.50;99.90
26212;DHT22;13951;49.516;6.094;2022-10-31T04:53:14;11.50;99.90
26212;DHT22;13951;49.516;6.094;2022-10-31T04:56:07;11.50;99.90
26212;DHT22;13951;49.516;6.094;2022-10-31T04:58:45;11.50;99.90
26212;DHT22;13951;49.516;6.094;2022-10-31T05:01:18;11.50;99.90
26212;DHT22;13951;49.516;6.094;2022-10-31T05:03:54;11.50;99.90
26212;DHT22;13951;49.516;6.094;2022-10-31T05:06:26;11.50;99.90
26212;DHT22;13951;49.516;6.094;2022-10-31T05:08:59;11.50;99.90
26212;DHT22;13951;49.516;6.094;2022-10-31T05:11:32;11.50;99.90
26212;DHT22;13951;49.516;6.094;2022-10-31T05:14:16;11.50;99.90
26212;DHT22;13951;49.516;6.094;2022-10-31T05:17:21;11.50;99.90
26212;DHT22;13951;49.516;6.094;2022-10-31T05:20:22;11.50;99.90
26212;DHT22;13951;49.516;6.094;2022-10-31T05:23:18;11.50;99.90
26212;DHT22;13951;49.516;6.094;2022-10-31T05:25:51;11.50;99.90
26212;DHT22;13951;49.516;6.094;2022-10-31T05:28:24;11.50;99.90
26212;DHT22;13951;49.516;6.094;2022-10-31T05:30:57;11.50;99.90
26212;DHT22;13951;49.516;6.094;2022-10-31T05:33:29;11.50;99.90
26212;DHT22;13951;49.516;6.094;2022-10-31T05:36:21;11.50;99.90
26212;DHT22;13951;49.516;6.094;2022-10-31T05:38:59;11.60;99.90
26212;DHT22;13951;49.516;6.094;2022-10-31T05:41:47;11.60;99.90
26212;DHT22;13951;49.516;6.094;2022-10-31T05:44:24;11.60;99.90
26212;DHT22;13951;49.516;6.094;2022-10-31T05:47:33;11.60;99.90
26212;DHT22;13951;49.516;6.094;2022-10-31T05:50:30;11.60;99.90
26212;DHT22;13951;49.516;6.094;2022-10-31T05:53:24;11.60;99.90
26212;DHT22;13951;49.516;6.094;2022-10-31T05:55:56;11.60;99.90
26212;DHT22;13951;49.516;6.094;2022-10-31T05:58:30;11.60;99.90
26212;DHT22;13951;49.516;6.094;2022-10-31T06:01:08;11.60;99.90
26212;DHT22;13951;49.516;6.094;2022-10-31T06:03:41;11.60;99.90
26212;DHT22;13951;49.516;6.094;2022-10-31T06:06:15;11.60;99.90
26212;DHT22;13951;49.516;6.094;2022-10-31T06:08:47;11.60;99.90
26212;DHT22;13951;49.516;6.094;2022-10-31T06:11:24;11.60;99.90
26212;DHT22;13951;49.516;6.094;2022-10-31T06:14:09;11.60;99.90
26212;DHT22;13951;49.516;6.094;2022-10-31T06:16:51;11.60;99.90
26212;DHT22;13951;49.516;6.094;2022-10-31T06:19:42;11.60;99.90
26212;DHT22;13951;49.516;6.094;2022-10-31T06:22:19;11.60;99.90
26212;DHT22;13951;49.516;6.094;2022-10-31T06:24:53;11.60;99.90
26212;DHT22;13951;49.516;6.094;2022-10-31T06:27:39;11.60;99.90
26212;DHT22;13951;49.516;6.094;2022-10-31T06:30:18;11.50;99.90
26212;DHT22;13951;49.516;6.094;2022-10-31T06:32:51;11.50;99.90
26212;DHT22;13951;49.516;6.094;2022-10-31T06:35:25;11.50;99.90
26212;DHT22;13951;49.516;6.094;2022-10-31T06:37:58;11.50;99.90
26212;DHT22;13951;49.516;6.094;2022-10-31T06:40:49;11.50;99.90
26212;DHT22;13951;49.516;6.094;2022-10-31T06:43:25;11.40;99.90
26212;DHT22;13951;49.516;6.094;2022-10-31T06:46:15;11.40;99.90
26212;DHT22;13951;49.516;6.094;2022-10-31T06:48:59;11.40;99.90
26212;DHT22;13951;49.516;6.094;2022-10-31T06:51:55;11.40;99.90
26212;DHT22;13951;49.516;6.094;2022-10-31T06:54:28;11.40;99.90
26212;DHT22;13951;49.516;6.094;2022-10-31T06:57:01;11.40;99.90
26212;DHT22;13951;49.516;6.094;2022-10-31T06:59:33;11.40;99.90
26212;DHT22;13951;49.516;6.094;2022-10-31T07:02:09;11.40;99.90
26212;DHT22;13951;49.516;6.094;2022-10-31T07:04:44;11.40;99.90
26212;DHT22;13951;49.516;6.094;2022-10-31T07:07:22;11.40;99.90
26212;DHT22;13951;49.516;6.094;2022-10-31T07:09:55;11.40;99.90
26212;DHT22;13951;49.516;6.094;2022-10-31T07:12:44;11.50;99.90
26212;DHT22;13951;49.516;6.094;2022-10-31T07:15:17;11.50;99.90
26212;DHT22;13951;49.516;6.094;2022-10-31T07:17:50;11.50;99.90
26212;DHT22;13951;49.516;6.094;2022-10-31T07:20:23;11.60;99.90
26212;DHT22;13951;49.516;6.094;2022-10-31T07:22:56;11.60;99.90
26212;DHT22;13951;49.516;6.094;2022-10-31T07:25:29;11.60;99.90
26212;DHT22;13951;49.516;6.094;2022-10-31T07:28:15;11.60;99.90
26212;DHT22;13951;49.516;6.094;2022-10-31T07:30:53;11.60;99.90
26212;DHT22;13951;49.516;6.094;2022-10-31T07:33:26;11.70;99.90
26212;DHT22;13951;49.516;6.094;2022-10-31T07:36:18;11.70;99.90
26212;DHT22;13951;49.516;6.094;2022-10-31T07:38:53;11.80;99.90
26212;DHT22;13951;49.516;6.094;2022-10-31T07:41:26;11.80;99.90
26212;DHT22;13951;49.516;6.094;2022-10-31T07:43:59;11.80;99.90
26212;DHT22;13951;49.516;6.094;2022-10-31T07:46:35;11.90;99.90
26212;DHT22;13951;49.516;6.094;2022-10-31T07:49:40;11.90;99.90
26212;DHT22;13951;49.516;6.094;2022-10-31T07:52:38;11.90;99.90
26212;DHT22;13951;49.516;6.094;2022-10-31T07:55:39;12.00;99.90
26212;DHT22;13951;49.516;6.094;2022-10-31T07:58:15;12.00;99.90
26212;DHT22;13951;49.516;6.094;2022-10-31T08:00:48;12.00;99.90
26212;DHT22;13951;49.516;6.094;2022-10-31T08:03:31;12.10;99.90
26212;DHT22;13951;49.516;6.094;2022-10-31T08:06:30;12.10;99.90
26212;DHT22;13951;49.516;6.094;2022-10-31T08:09:35;12.10;99.90
26212;DHT22;13951;49.516;6.094;2022-10-31T08:12:18;12.20;99.90
26212;DHT22;13951;49.516;6.094;2022-10-31T08:14:51;12.20;99.90
26212;DHT22;13951;49.516;6.094;2022-10-31T08:17:25;12.30;99.90
26212;DHT22;13951;49.516;6.094;2022-10-31T08:20:00;12.30;99.90
26212;DHT22;13951;49.516;6.094;2022-10-31T08:22:38;12.40;99.90
26212;DHT22;13951;49.516;6.094;2022-10-31T08:25:15;12.40;99.90
26212;DHT22;13951;49.516;6.094;2022-10-31T08:27:50;12.50;99.90
26212;DHT22;13951;49.516;6.094;2022-10-31T08:30:26;12.50;99.90
26212;DHT22;13951;49.516;6.094;2022-10-31T08:33:19;12.50;99.90
26212;DHT22;13951;49.516;6.094;2022-10-31T08:36:10;12.60;99.90
26212;DHT22;13951;49.516;6.094;2022-10-31T08:38:58;12.60;99.90
26212;DHT22;13951;49.516;6.094;2022-10-31T08:41:34;12.70;99.90
26212;DHT22;13951;49.516;6.094;2022-10-31T08:44:08;12.70;99.90
26212;DHT22;13951;49.516;6.094;2022-10-31T08:46:42;12.70;99.90
26212;DHT22;13951;49.516;6.094;2022-10-31T08:49:15;12.80;99.90
26212;DHT22;13951;49.516;6.094;2022-10-31T08:51:49;12.90;99.90
26212;DHT22;13951;49.516;6.094;2022-10-31T08:54:22;13.00;99.90
26212;DHT22;13951;49.516;6.094;2022-10-31T08:56:55;12.90;99.90
26212;DHT22;13951;49.516;6.094;2022-10-31T08:59:45;13.00;99.90
26212;DHT22;13951;49.516;6.094;2022-10-31T09:02:29;13.00;99.90
26212;DHT22;13951;49.516;6.094;2022-10-31T09:05:04;13.20;99.90
26212;DHT22;13951;49.516;6.094;2022-10-31T09:07:42;13.20;99.90
26212;DHT22;13951;49.516;6.094;2022-10-31T09:10:14;13.30;99.90
26212;DHT22;13951;49.516;6.094;2022-10-31T09:12:55;13.40;99.90
26212;DHT22;13951;49.516;6.094;2022-10-31T09:15:48;13.50;99.90
26212;DHT22;13951;49.516;6.094;2022-10-31T09:18:26;13.60;99.90
26212;DHT22;13951;49.516;6.094;2022-10-31T09:21:04;13.60;99.90
26212;DHT22;13951;49.516;6.094;2022-10-31T09:23:37;13.70;99.90
26212;DHT22;13951;49.516;6.094;2022-10-31T09:26:10;13.70;99.90
26212;DHT22;13951;49.516;6.094;2022-10-31T09:29:06;13.70;99.90
26212;DHT22;13951;49.516;6.094;2022-10-31T09:31:42;13.80;99.90
26212;DHT22;13951;49.516;6.094;2022-10-31T09:34:42;13.90;99.90
26212;DHT22;13951;49.516;6.094;2022-10-31T09:37:18;14.00;99.90
26212;DHT22;13951;49.516;6.094;2022-10-31T09:39:50;14.00;99.90
26212;DHT22;13951;49.516;6.094;2022-10-31T09:42:52;14.10;99.90
26212;DHT22;13951;49.516;6.094;2022-10-31T09:45:43;14.20;99.90
26212;DHT22;13951;49.516;6.094;2022-10-31T09:52:20;14.30;99.90
26212;DHT22;13951;49.516;6.094;2022-10-31T09:54:58;14.30;99.90
26212;DHT22;13951;49.516;6.094;2022-10-31T09:57:36;14.40;99.90
26212;DHT22;13951;49.516;6.094;2022-10-31T10:00:16;14.50;99.90
26212;DHT22;13951;49.516;6.094;2022-10-31T10:03:10;14.50;99.90
26212;DHT22;13951;49.516;6.094;2022-10-31T10:06:18;14.60;99.90
26212;DHT22;13951;49.516;6.094;2022-10-31T10:09:12;14.70;99.90
26212;DHT22;13951;49.516;6.094;2022-10-31T10:18:08;14.70;99.90
26212;DHT22;13951;49.516;6.094;2022-10-31T10:21:02;14.70;99.90
26212;DHT22;13951;49.516;6.094;2022-10-31T10:26:41;14.80;99.90
26212;DHT22;13951;49.516;6.094;2022-10-31T10:32:05;14.90;99.90
26212;DHT22;13951;49.516;6.094;2022-10-31T10:34:46;14.90;99.90
26212;DHT22;13951;49.516;6.094;2022-10-31T10:40:17;15.00;99.90
26212;DHT22;13951;49.516;6.094;2022-10-31T10:49:18;15.10;99.90
26212;DHT22;13951;49.516;6.094;2022-10-31T10:52:10;15.20;99.90
26212;DHT22;13951;49.516;6.094;2022-10-31T10:58:02;15.10;99.90
26212;DHT22;13951;49.516;6.094;2022-10-31T11:00:44;15.10;99.90
26212;DHT22;13951;49.516;6.094;2022-10-31T11:03:22;15.10;99.90
26212;DHT22;13951;49.516;6.094;2022-10-31T11:05:56;15.10;99.90
26212;DHT22;13951;49.516;6.094;2022-10-31T11:08:35;15.10;99.90
26212;DHT22;13951;49.516;6.094;2022-10-31T11:11:27;15.10;99.90
26212;DHT22;13951;49.516;6.094;2022-10-31T11:14:12;15.20;99.90
26212;DHT22;13951;49.516;6.094;2022-10-31T11:17:07;15.20;99.90
26212;DHT22;13951;49.516;6.094;2022-10-31T11:19:41;15.20;99.90
26212;DHT22;13951;49.516;6.094;2022-10-31T11:22:16;15.20;99.90
26212;DHT22;13951;49.516;6.094;2022-10-31T11:24:50;15.20;99.90
26212;DHT22;13951;49.516;6.094;2022-10-31T11:27:25;15.20;99.90
26212;DHT22;13951;49.516;6.094;2022-10-31T11:30:06;15.30;99.90
26212;DHT22;13951;49.516;6.094;2022-10-31T11:32:49;15.30;99.90
26212;DHT22;13951;49.516;6.094;2022-10-31T11:35:26;15.30;99.90
26212;DHT22;13951;49.516;6.094;2022-10-31T11:38:00;15.30;99.90
26212;DHT22;13951;49.516;6.094;2022-10-31T11:40:35;15.20;99.90
26212;DHT22;13951;49.516;6.094;2022-10-31T11:43:15;15.30;99.90
26212;DHT22;13951;49.516;6.094;2022-10-31T11:45:50;15.30;99.90
26212;DHT22;13951;49.516;6.094;2022-10-31T11:48:24;15.30;99.90
26212;DHT22;13951;49.516;6.094;2022-10-31T11:50:58;15.40;99.90
26212;DHT22;13951;49.516;6.094;2022-10-31T11:53:33;15.40;99.90
26212;DHT22;13951;49.516;6.094;2022-10-31T11:56:16;15.40;99.90
26212;DHT22;13951;49.516;6.094;2022-10-31T11:59:05;15.50;99.90
26212;DHT22;13951;49.516;6.094;2022-10-31T12:01:40;15.50;99.90
26212;DHT22;13951;49.516;6.094;2022-10-31T12:04:16;15.50;99.90
26212;DHT22;13951;49.516;6.094;2022-10-31T12:06:50;15.50;99.90
26212;DHT22;13951;49.516;6.094;2022-10-31T12:09:34;15.50;99.90
26212;DHT22;13951;49.516;6.094;2022-10-31T12:20:56;15.70;99.90
26212;DHT22;13951;49.516;6.094;2022-10-31T12:26:23;15.70;99.90
26212;DHT22;13951;49.516;6.094;2022-10-31T12:29:15;15.70;99.90
26212;DHT22;13951;49.516;6.094;2022-10-31T12:41:17;17.80;99.90
26212;DHT22;13951;49.516;6.094;2022-10-31T12:43:46;18.60;99.90
26212;DHT22;13951;49.516;6.094;2022-10-31T12:52:40;20.40;99.90
26212;DHT22;13951;49.516;6.094;2022-10-31T12:55:58;20.80;99.90
26212;DHT22;13951;49.516;6.094;2022-10-31T12:58:47;20.90;99.90
26212;DHT22;13951;49.516;6.094;2022-10-31T13:01:33;20.80;99.90
26212;DHT22;13951;49.516;6.094;2022-10-31T13:07:31;19.80;99.90
26212;DHT22;13951;49.516;6.094;2022-10-31T13:13:07;18.70;99.90
26212;DHT22;13951;49.516;6.094;2022-10-31T13:15:50;18.40;99.90
26212;DHT22;13951;49.516;6.094;2022-10-31T13:21:10;17.90;99.90
26212;DHT22;13951;49.516;6.094;2022-10-31T13:23:45;17.80;99.90
26212;DHT22;13951;49.516;6.094;2022-10-31T13:26:53;17.70;99.90
26212;DHT22;13951;49.516;6.094;2022-10-31T13:32:06;17.70;99.90
26212;DHT22;13951;49.516;6.094;2022-10-31T13:34:46;17.70;99.90
26212;DHT22;13951;49.516;6.094;2022-10-31T13:37:36;17.70;99.90
26212;DHT22;13951;49.516;6.094;2022-10-31T13:45:52;17.40;99.90
26212;DHT22;13951;49.516;6.094;2022-10-31T13:51:07;17.30;99.90
26212;DHT22;13951;49.516;6.094;2022-10-31T13:56:26;17.30;99.90
26212;DHT22;13951;49.516;6.094;2022-10-31T14:01:56;17.30;99.90
26212;DHT22;13951;49.516;6.094;2022-10-31T14:04:36;17.30;99.90
26212;DHT22;13951;49.516;6.094;2022-10-31T14:07:16;17.30;99.90
26212;DHT22;13951;49.516;6.094;2022-10-31T14:10:38;17.20;99.90
26212;DHT22;13951;49.516;6.094;2022-10-31T14:12:50;17.20;99.90
26212;DHT22;13951;49.516;6.094;2022-10-31T14:15:27;17.20;99.90
26212;DHT22;13951;49.516;6.094;2022-10-31T14:18:21;17.20;99.90
26212;DHT22;13951;49.516;6.094;2022-10-31T14:20:56;17.20;99.90
26212;DHT22;13951;49.516;6.094;2022-10-31T14:23:37;17.20;99.90
26212;DHT22;13951;49.516;6.094;2022-10-31T14:31:57;17.30;99.90
26212;DHT22;13951;49.516;6.094;2022-10-31T14:34:41;17.30;99.90
26212;DHT22;13951;49.516;6.094;2022-10-31T14:37:20;17.30;99.90
26212;DHT22;13951;49.516;6.094;2022-10-31T14:42:44;17.30;99.90
26212;DHT22;13951;49.516;6.094;2022-10-31T14:45:28;17.30;99.90
26212;DHT22;13951;49.516;6.094;2022-10-31T14:53:51;17.30;99.90
26212;DHT22;13951;49.516;6.094;2022-10-31T14:56:37;17.30;99.90
26212;DHT22;13951;49.516;6.094;2022-10-31T14:59:16;17.30;99.90
26212;DHT22;13951;49.516;6.094;2022-10-31T15:02:09;17.30;99.90
26212;DHT22;13951;49.516;6.094;2022-10-31T15:04:44;17.20;99.90
26212;DHT22;13951;49.516;6.094;2022-10-31T15:07:23;17.20;99.90
26212;DHT22;13951;49.516;6.094;2022-10-31T15:09:59;17.20;99.90
26212;DHT22;13951;49.516;6.094;2022-10-31T15:12:35;17.10;99.90
26212;DHT22;13951;49.516;6.094;2022-10-31T15:15:22;17.10;99.90
26212;DHT22;13951;49.516;6.094;2022-10-31T15:17:58;17.00;99.90
26212;DHT22;13951;49.516;6.094;2022-10-31T15:20:44;17.00;99.90
26212;DHT22;13951;49.516;6.094;2022-10-31T15:23:26;16.90;99.90
26212;DHT22;13951;49.516;6.094;2022-10-31T15:26:03;16.90;99.90
26212;DHT22;13951;49.516;6.094;2022-10-31T15:28:37;16.80;99.90
26212;DHT22;13951;49.516;6.094;2022-10-31T15:31:16;16.80;99.90
26212;DHT22;13951;49.516;6.094;2022-10-31T15:33:49;16.70;99.90
26212;DHT22;13951;49.516;6.094;2022-10-31T15:36:31;16.70;99.90
26212;DHT22;13951;49.516;6.094;2022-10-31T15:39:11;16.60;99.90
26212;DHT22;13951;49.516;6.094;2022-10-31T15:41:50;16.60;99.90
26212;DHT22;13951;49.516;6.094;2022-10-31T15:44:40;16.50;99.90
26212;DHT22;13951;49.516;6.094;2022-10-31T15:47:18;16.40;99.90
26212;DHT22;13951;49.516;6.094;2022-10-31T15:49:56;16.50;99.90
26212;DHT22;13951;49.516;6.094;2022-10-31T15:52:43;16.40;99.90
26212;DHT22;13951;49.516;6.094;2022-10-31T15:55:22;16.30;99.90
26212;DHT22;13951;49.516;6.094;2022-10-31T15:58:02;16.20;99.90
26212;DHT22;13951;49.516;6.094;2022-10-31T16:00:38;16.20;99.90
26212;DHT22;13951;49.516;6.094;2022-10-31T16:03:25;16.10;99.90
26212;DHT22;13951;49.516;6.094;2022-10-31T16:06:04;16.10;99.90
26212;DHT22;13951;49.516;6.094;2022-10-31T16:08:50;16.10;99.90
26212;DHT22;13951;49.516;6.094;2022-10-31T16:11:34;16.00;99.90
26212;DHT22;13951;49.516;6.094;2022-10-31T16:16:49;16.00;99.90
26212;DHT22;13951;49.516;6.094;2022-10-31T16:19:30;15.90;99.90
26212;DHT22;13951;49.516;6.094;2022-10-31T16:22:12;15.90;99.90
26212;DHT22;13951;49.516;6.094;2022-10-31T16:24:56;15.80;99.90
26212;DHT22;13951;49.516;6.094;2022-10-31T16:27:32;15.80;99.90
26212;DHT22;13951;49.516;6.094;2022-10-31T16:30:28;15.70;99.90
26212;DHT22;13951;49.516;6.094;2022-10-31T16:33:01;15.70;99.90
26212;DHT22;13951;49.516;6.094;2022-10-31T16:35:36;15.70;99.90
26212;DHT22;13951;49.516;6.094;2022-10-31T16:38:09;15.60;99.90
26212;DHT22;13951;49.516;6.094;2022-10-31T16:40:43;15.60;99.90
26212;DHT22;13951;49.516;6.094;2022-10-31T16:43:18;15.50;99.90
26212;DHT22;13951;49.516;6.094;2022-10-31T16:45:51;15.40;99.90
26212;DHT22;13951;49.516;6.094;2022-10-31T16:48:24;15.40;99.90
26212;DHT22;13951;49.516;6.094;2022-10-31T16:50:57;15.30;99.90
26212;DHT22;13951;49.516;6.094;2022-10-31T16:53:30;15.30;99.90
26212;DHT22;13951;49.516;6.094;2022-10-31T16:56:04;15.30;99.90
26212;DHT22;13951;49.516;6.094;2022-10-31T16:58:37;15.20;99.90
26212;DHT22;13951;49.516;6.094;2022-10-31T17:01:11;15.20;99.90
26212;DHT22;13951;49.516;6.094;2022-10-31T17:03:45;15.10;99.90
26212;DHT22;13951;49.516;6.094;2022-10-31T17:06:18;15.10;99.90
26212;DHT22;13951;49.516;6.094;2022-10-31T17:08:50;15.00;99.90
26212;DHT22;13951;49.516;6.094;2022-10-31T17:11:25;15.00;99.90
26212;DHT22;13951;49.516;6.094;2022-10-31T17:13:58;14.90;99.90
26212;DHT22;13951;49.516;6.094;2022-10-31T17:16:31;14.90;99.90
26212;DHT22;13951;49.516;6.094;2022-10-31T17:19:03;14.80;99.90
26212;DHT22;13951;49.516;6.094;2022-10-31T17:21:37;14.80;99.90
26212;DHT22;13951;49.516;6.094;2022-10-31T17:24:14;14.80;99.90
26212;DHT22;13951;49.516;6.094;2022-10-31T17:26:47;14.80;99.90
26212;DHT22;13951;49.516;6.094;2022-10-31T17:29:20;14.80;99.90
26212;DHT22;13951;49.516;6.094;2022-10-31T17:31:52;14.70;99.90
26212;DHT22;13951;49.516;6.094;2022-10-31T17:34:25;14.70;99.90
26212;DHT22;13951;49.516;6.094;2022-10-31T17:36:58;14.60;99.90
26212;DHT22;13951;49.516;6.094;2022-10-31T17:39:31;14.60;99.90
26212;DHT22;13951;49.516;6.094;2022-10-31T17:42:03;14.60;99.90
26212;DHT22;13951;49.516;6.094;2022-10-31T17:44:36;14.60;99.90
26212;DHT22;13951;49.516;6.094;2022-10-31T17:47:09;14.60;99.90
26212;DHT22;13951;49.516;6.094;2022-10-31T17:49:42;14.50;99.90
26212;DHT22;13951;49.516;6.094;2022-10-31T17:52:15;14.50;99.90
26212;DHT22;13951;49.516;6.094;2022-10-31T17:54:47;14.50;99.90
26212;DHT22;13951;49.516;6.094;2022-10-31T17:57:20;14.40;99.90
26212;DHT22;13951;49.516;6.094;2022-10-31T17:59:53;14.50;99.90
26212;DHT22;13951;49.516;6.094;2022-10-31T18:02:26;14.40;99.90
26212;DHT22;13951;49.516;6.094;2022-10-31T18:04:59;14.40;99.90
26212;DHT22;13951;49.516;6.094;2022-10-31T18:07:34;14.40;99.90
26212;DHT22;13951;49.516;6.094;2022-10-31T18:10:07;14.40;99.90
26212;DHT22;13951;49.516;6.094;2022-10-31T18:12:40;14.40;99.90
26212;DHT22;13951;49.516;6.094;2022-10-31T18:15:14;14.30;99.90
26212;DHT22;13951;49.516;6.094;2022-10-31T18:17:47;14.30;99.90
26212;DHT22;13951;49.516;6.094;2022-10-31T18:20:20;14.30;99.90
26212;DHT22;13951;49.516;6.094;2022-10-31T18:22:53;14.20;99.90
26212;DHT22;13951;49.516;6.094;2022-10-31T18:25:25;14.20;99.90
26212;DHT22;13951;49.516;6.094;2022-10-31T18:27:58;14.20;99.90
26212;DHT22;13951;49.516;6.094;2022-10-31T18:30:32;14.20;99.90
26212;DHT22;13951;49.516;6.094;2022-10-31T18:33:06;14.20;99.90
26212;DHT22;13951;49.516;6.094;2022-10-31T18:35:40;14.20;99.90
26212;DHT22;13951;49.516;6.094;2022-10-31T18:38:13;14.20;99.90
26212;DHT22;13951;49.516;6.094;2022-10-31T18:40:45;14.30;99.90
26212;DHT22;13951;49.516;6.094;2022-10-31T18:43:18;14.30;99.90
26212;DHT22;13951;49.516;6.094;2022-10-31T18:45:51;14.30;99.90
26212;DHT22;13951;49.516;6.094;2022-10-31T18:48:30;14.30;99.90
26212;DHT22;13951;49.516;6.094;2022-10-31T18:51:04;14.40;99.90
26212;DHT22;13951;49.516;6.094;2022-10-31T18:53:37;14.40;99.90
26212;DHT22;13951;49.516;6.094;2022-10-31T18:56:11;14.40;99.90
26212;DHT22;13951;49.516;6.094;2022-10-31T18:58:44;14.40;99.90
26212;DHT22;13951;49.516;6.094;2022-10-31T19:01:18;14.40;99.90
26212;DHT22;13951;49.516;6.094;2022-10-31T19:03:53;14.40;99.90
26212;DHT22;13951;49.516;6.094;2022-10-31T19:06:27;14.40;99.90
26212;DHT22;13951;49.516;6.094;2022-10-31T19:09:05;14.40;99.90
26212;DHT22;13951;49.516;6.094;2022-10-31T19:11:40;14.50;99.90
26212;DHT22;13951;49.516;6.094;2022-10-31T19:14:13;14.40;99.90
26212;DHT22;13951;49.516;6.094;2022-10-31T19:16:46;14.50;99.90
26212;DHT22;13951;49.516;6.094;2022-10-31T19:19:21;14.50;99.90
26212;DHT22;13951;49.516;6.094;2022-10-31T19:21:54;14.50;99.90
26212;DHT22;13951;49.516;6.094;2022-10-31T19:24:28;14.50;99.90
26212;DHT22;13951;49.516;6.094;2022-10-31T19:27:00;14.50;99.90
26212;DHT22;13951;49.516;6.094;2022-10-31T19:29:33;14.50;99.90
26212;DHT22;13951;49.516;6.094;2022-10-31T19:32:06;14.50;99.90
26212;DHT22;13951;49.516;6.094;2022-10-31T19:34:39;14.50;99.90
26212;DHT22;13951;49.516;6.094;2022-10-31T19:37:12;14.50;99.90
26212;DHT22;13951;49.516;6.094;2022-10-31T19:39:45;14.50;99.90
26212;DHT22;13951;49.516;6.094;2022-10-31T19:42:18;14.40;99.90
26212;DHT22;13951;49.516;6.094;2022-10-31T19:44:51;14.40;99.90
26212;DHT22;13951;49.516;6.094;2022-10-31T19:47:33;14.40;99.90
26212;DHT22;13951;49.516;6.094;2022-10-31T19:50:07;14.40;99.90
26212;DHT22;13951;49.516;6.094;2022-10-31T19:52:40;14.40;99.90
26212;DHT22;13951;49.516;6.094;2022-10-31T19:55:13;14.30;99.90
26212;DHT22;13951;49.516;6.094;2022-10-31T19:57:46;14.30;99.90
26212;DHT22;13951;49.516;6.094;2022-10-31T20:00:33;14.30;99.90
26212;DHT22;13951;49.516;6.094;2022-10-31T20:03:08;14.20;99.90
26212;DHT22;13951;49.516;6.094;2022-10-31T20:05:42;14.20;99.90
26212;DHT22;13951;49.516;6.094;2022-10-31T20:08:19;14.20;99.90
26212;DHT22;13951;49.516;6.094;2022-10-31T20:10:57;14.20;99.90
26212;DHT22;13951;49.516;6.094;2022-10-31T20:13:32;14.20;99.90
26212;DHT22;13951;49.516;6.094;2022-10-31T20:16:08;14.20;99.90
26212;DHT22;13951;49.516;6.094;2022-10-31T20:18:42;14.10;99.90
26212;DHT22;13951;49.516;6.094;2022-10-31T20:21:19;14.10;99.90
26212;DHT22;13951;49.516;6.094;2022-10-31T20:24:01;14.10;99.90
26212;DHT22;13951;49.516;6.094;2022-10-31T20:26:35;14.10;99.90
26212;DHT22;13951;49.516;6.094;2022-10-31T20:29:13;14.10;99.90
26212;DHT22;13951;49.516;6.094;2022-10-31T20:31:47;14.10;99.90
26212;DHT22;13951;49.516;6.094;2022-10-31T20:34:20;14.10;99.90
26212;DHT22;13951;49.516;6.094;2022-10-31T20:36:54;14.10;99.90
26212;DHT22;13951;49.516;6.094;2022-10-31T20:39:26;14.10;99.90
26212;DHT22;13951;49.516;6.094;2022-10-31T20:41:59;14.20;99.90
26212;DHT22;13951;49.516;6.094;2022-10-31T20:44:33;14.20;99.90
26212;DHT22;13951;49.516;6.094;2022-10-31T20:47:06;14.20;99.90
26212;DHT22;13951;49.516;6.094;2022-10-31T20:49:40;14.30;99.90
26212;DHT22;13951;49.516;6.094;2022-10-31T20:52:13;14.30;99.90
26212;DHT22;13951;49.516;6.094;2022-10-31T20:54:46;14.30;99.90
26212;DHT22;13951;49.516;6.094;2022-10-31T20:57:20;14.40;99.90
26212;DHT22;13951;49.516;6.094;2022-10-31T20:59:53;14.40;99.90
26212;DHT22;13951;49.516;6.094;2022-10-31T21:02:26;14.40;99.90
26212;DHT22;13951;49.516;6.094;2022-10-31T21:05:00;14.40;99.90
26212;DHT22;13951;49.516;6.094;2022-10-31T21:07:33;14.40;99.90
26212;DHT22;13951;49.516;6.094;2022-10-31T21:10:07;14.40;99.90
26212;DHT22;13951;49.516;6.094;2022-10-31T21:12:47;14.40;99.90
26212;DHT22;13951;49.516;6.094;2022-10-31T21:15:20;14.50;99.90
26212;DHT22;13951;49.516;6.094;2022-10-31T21:17:53;14.50;99.90
26212;DHT22;13951;49.516;6.094;2022-10-31T21:20:27;14.50;99.90
26212;DHT22;13951;49.516;6.094;2022-10-31T21:23:00;14.50;99.90
26212;DHT22;13951;49.516;6.094;2022-10-31T21:25:37;14.50;99.90
26212;DHT22;13951;49.516;6.094;2022-10-31T21:28:11;14.50;99.90
26212;DHT22;13951;49.516;6.094;2022-10-31T21:30:49;14.50;99.90
26212;DHT22;13951;49.516;6.094;2022-10-31T21:33:23;14.50;99.90
26212;DHT22;13951;49.516;6.094;2022-10-31T21:35:57;14.60;99.90
26212;DHT22;13951;49.516;6.094;2022-10-31T21:38:30;14.60;99.90
26212;DHT22;13951;49.516;6.094;2022-10-31T21:41:06;14.60;99.90
26212;DHT22;13951;49.516;6.094;2022-10-31T21:43:42;14.70;99.90
26212;DHT22;13951;49.516;6.094;2022-10-31T21:46:17;14.70;99.90
26212;DHT22;13951;49.516;6.094;2022-10-31T21:48:51;14.80;99.90
26212;DHT22;13951;49.516;6.094;2022-10-31T21:51:27;14.80;99.90
26212;DHT22;13951;49.516;6.094;2022-10-31T21:54:01;14.90;99.90
26212;DHT22;13951;49.516;6.094;2022-10-31T21:56:54;14.90;99.90
26212;DHT22;13951;49.516;6.094;2022-10-31T21:59:27;14.90;99.90
26212;DHT22;13951;49.516;6.094;2022-10-31T22:02:01;14.90;99.90
26212;DHT22;13951;49.516;6.094;2022-10-31T22:04:34;15.00;99.90
26212;DHT22;13951;49.516;6.094;2022-10-31T22:07:07;15.10;99.90
26212;DHT22;13951;49.516;6.094;2022-10-31T22:09:40;15.30;99.90
26212;DHT22;13951;49.516;6.094;2022-10-31T22:12:19;15.50;99.90
26212;DHT22;13951;49.516;6.094;2022-10-31T22:14:52;15.60;99.90
26212;DHT22;13951;49.516;6.094;2022-10-31T22:17:26;15.70;99.90
26212;DHT22;13951;49.516;6.094;2022-10-31T22:19:59;15.70;99.90
26212;DHT22;13951;49.516;6.094;2022-10-31T22:22:32;15.60;99.90
26212;DHT22;13951;49.516;6.094;2022-10-31T22:25:06;15.60;99.90
26212;DHT22;13951;49.516;6.094;2022-10-31T22:27:39;15.50;99.90
26212;DHT22;13951;49.516;6.094;2022-10-31T22:30:14;15.40;99.90
26212;DHT22;13951;49.516;6.094;2022-10-31T22:32:48;15.30;99.90
26212;DHT22;13951;49.516;6.094;2022-10-31T22:35:21;15.20;99.90
26212;DHT22;13951;49.516;6.094;2022-10-31T22:37:55;15.10;99.90
26212;DHT22;13951;49.516;6.094;2022-10-31T22:40:28;15.00;99.90
26212;DHT22;13951;49.516;6.094;2022-10-31T22:43:02;14.90;99.90
26212;DHT22;13951;49.516;6.094;2022-10-31T22:45:35;14.90;99.90
26212;DHT22;13951;49.516;6.094;2022-10-31T22:48:08;14.80;99.90
26212;DHT22;13951;49.516;6.094;2022-10-31T22:50:41;14.80;99.90